sensor_id;sensor_type;location;lat;lon;timestamp;temperature;humidity
78733;DHT22;68056;52.530;5.454;2023-12-04T00:00:46;0.80;76.60
78733;DHT22;68056;52.530;5.454;2023-12-04T00:03:12;0.80;76.60
78733;DHT22;68056;52.530;5.454;2023-12-04T00:05:37;0.80;76.70
78733;DHT22;68056;52.530;5.454;2023-12-04T00:08:03;0.80;76.60
78733;DHT22;68056;52.530;5.454;2023-12-04T00:10:29;0.80;76.60
78733;DHT22;68056;52.530;5.454;2023-12-04T00:12:54;0.80;76.60
78733;DHT22;68056;52.530;5.454;2023-12-04T00:15:20;0.80;76.60
78733;DHT22;68056;52.530;5.454;2023-12-04T00:17:46;0.80;76.70
78733;DHT22;68056;52.530;5.454;2023-12-04T00:20:12;0.80;76.70
78733;DHT22;68056;52.530;5.454;2023-12-04T00:22:38;0.80;76.60
78733;DHT22;68056;52.530;5.454;2023-12-04T00:25:05;0.80;76.60
78733;DHT22;68056;52.530;5.454;2023-12-04T00:27:31;0.80;76.60
78733;DHT22;68056;52.530;5.454;2023-12-04T00:29:56;0.90;76.70
78733;DHT22;68056;52.530;5.454;2023-12-04T00:32:22;0.90;76.70
78733;DHT22;68056;52.530;5.454;2023-12-04T00:34:48;0.90;76.60
78733;DHT22;68056;52.530;5.454;2023-12-04T00:37:13;0.90;76.60
78733;DHT22;68056;52.530;5.454;2023-12-04T00:39:39;1.00;76.60
78733;DHT22;68056;52.530;5.454;2023-12-04T00:42:05;1.00;76.50
78733;DHT22;68056;52.530;5.454;2023-12-04T00:44:31;0.90;76.60
78733;DHT22;68056;52.530;5.454;2023-12-04T00:46:56;1.00;76.60
78733;DHT22;68056;52.530;5.454;2023-12-04T00:49:23;1.00;76.60
78733;DHT22;68056;52.530;5.454;2023-12-04T00:51:48;0.90;76.60
78733;DHT22;68056;52.530;5.454;2023-12-04T00:54:14;1.00;76.60
78733;DHT22;68056;52.530;5.454;2023-12-04T00:56:39;1.00;76.50
78733;DHT22;68056;52.530;5.454;2023-12-04T00:59:06;1.00;76.50
78733;DHT22;68056;52.530;5.454;2023-12-04T01:01:32;1.00;76.50
78733;DHT22;68056;52.530;5.454;2023-12-04T01:03:58;1.00;76.60
78733;DHT22;68056;52.530;5.454;2023-12-04T01:06:23;1.00;76.50
78733;DHT22;68056;52.530;5.454;2023-12-04T01:08:50;1.00;76.50
78733;DHT22;68056;52.530;5.454;2023-12-04T01:11:16;1.00;76.50
78733;DHT22;68056;52.530;5.454;2023-12-04T01:13:42;1.00;76.50
78733;DHT22;68056;52.530;5.454;2023-12-04T01:16:08;1.00;76.60
78733;DHT22;68056;52.530;5.454;2023-12-04T01:18:34;1.00;76.50
78733;DHT22;68056;52.530;5.454;2023-12-04T01:21:00;1.00;76.50
78733;DHT22;68056;52.530;5.454;2023-12-04T01:23:25;1.00;76.40
78733;DHT22;68056;52.530;5.454;2023-12-04T01:25:51;1.00;76.50
78733;DHT22;68056;52.530;5.454;2023-12-04T01:28:16;1.00;76.50
78733;DHT22;68056;52.530;5.454;2023-12-04T01:30:42;1.00;76.50
78733;DHT22;68056;52.530;5.454;2023-12-04T01:33:08;1.00;76.50
78733;DHT22;68056;52.530;5.454;2023-12-04T01:35:33;1.00;76.50
78733;DHT22;68056;52.530;5.454;2023-12-04T01:37:59;1.00;76.50
78733;DHT22;68056;52.530;5.454;2023-12-04T01:40:26;1.00;76.50
78733;DHT22;68056;52.530;5.454;2023-12-04T01:42:51;1.00;76.50
78733;DHT22;68056;52.530;5.454;2023-12-04T01:45:17;1.00;76.50
78733;DHT22;68056;52.530;5.454;2023-12-04T01:47:43;1.00;76.50
78733;DHT22;68056;52.530;5.454;2023-12-04T01:50:09;1.00;76.50
78733;DHT22;68056;52.530;5.454;2023-12-04T01:52:35;1.00;76.50
78733;DHT22;68056;52.530;5.454;2023-12-04T01:55:03;1.00;76.40
78733;DHT22;68056;52.530;5.454;2023-12-04T01:57:28;1.00;76.40
78733;DHT22;68056;52.530;5.454;2023-12-04T01:59:54;1.00;76.40
78733;DHT22;68056;52.530;5.454;2023-12-04T02:02:20;1.00;76.40
78733;DHT22;68056;52.530;5.454;2023-12-04T02:04:45;1.00;76.40
78733;DHT22;68056;52.530;5.454;2023-12-04T02:07:11;1.00;76.40
78733;DHT22;68056;52.530;5.454;2023-12-04T02:09:37;1.00;76.50
78733;DHT22;68056;52.530;5.454;2023-12-04T02:12:03;1.00;76.50
78733;DHT22;68056;52.530;5.454;2023-12-04T02:14:29;1.00;76.50
78733;DHT22;68056;52.530;5.454;2023-12-04T02:16:56;1.00;76.50
78733;DHT22;68056;52.530;5.454;2023-12-04T02:19:23;1.00;76.50
78733;DHT22;68056;52.530;5.454;2023-12-04T02:21:49;1.00;76.50
78733;DHT22;68056;52.530;5.454;2023-12-04T02:24:14;1.00;76.50
78733;DHT22;68056;52.530;5.454;2023-12-04T02:26:52;1.00;76.50
78733;DHT22;68056;52.530;5.454;2023-12-04T02:29:26;1.00;76.50
78733;DHT22;68056;52.530;5.454;2023-12-04T02:31:55;1.00;76.40
78733;DHT22;68056;52.530;5.454;2023-12-04T02:34:22;1.00;76.40
78733;DHT22;68056;52.530;5.454;2023-12-04T02:36:52;1.00;76.40
78733;DHT22;68056;52.530;5.454;2023-12-04T02:39:19;1.00;76.40
78733;DHT22;68056;52.530;5.454;2023-12-04T02:41:53;1.00;76.40
78733;DHT22;68056;52.530;5.454;2023-12-04T02:44:19;1.00;76.40
78733;DHT22;68056;52.530;5.454;2023-12-04T02:46:45;1.00;76.40
78733;DHT22;68056;52.530;5.454;2023-12-04T02:49:10;1.00;76.40
78733;DHT22;68056;52.530;5.454;2023-12-04T02:51:36;1.10;76.30
78733;DHT22;68056;52.530;5.454;2023-12-04T02:54:01;1.10;76.30
78733;DHT22;68056;52.530;5.454;2023-12-04T02:56:27;1.00;76.40
78733;DHT22;68056;52.530;5.454;2023-12-04T02:58:52;1.00;76.30
78733;DHT22;68056;52.530;5.454;2023-12-04T03:01:18;1.00;76.40
78733;DHT22;68056;52.530;5.454;2023-12-04T03:03:43;1.10;76.20
78733;DHT22;68056;52.530;5.454;2023-12-04T03:06:09;1.00;76.30
78733;DHT22;68056;52.530;5.454;2023-12-04T03:08:35;1.00;76.20
78733;DHT22;68056;52.530;5.454;2023-12-04T03:11:01;1.00;76.20
78733;DHT22;68056;52.530;5.454;2023-12-04T03:13:28;1.00;76.20
78733;DHT22;68056;52.530;5.454;2023-12-04T03:15:53;1.00;76.20
78733;DHT22;68056;52.530;5.454;2023-12-04T03:18:19;1.10;76.20
78733;DHT22;68056;52.530;5.454;2023-12-04T03:20:45;1.00;76.10
78733;DHT22;68056;52.530;5.454;2023-12-04T03:23:10;1.10;76.10
78733;DHT22;68056;52.530;5.454;2023-12-04T03:25:36;1.10;76.00
78733;DHT22;68056;52.530;5.454;2023-12-04T03:28:01;1.10;76.00
78733;DHT22;68056;52.530;5.454;2023-12-04T03:30:27;1.10;75.90
78733;DHT22;68056;52.530;5.454;2023-12-04T03:32:53;1.10;75.90
78733;DHT22;68056;52.530;5.454;2023-12-04T03:35:18;1.10;75.90
78733;DHT22;68056;52.530;5.454;2023-12-04T03:37:44;1.10;75.90
78733;DHT22;68056;52.530;5.454;2023-12-04T03:40:10;1.10;75.90
78733;DHT22;68056;52.530;5.454;2023-12-04T03:42:36;1.10;75.80
78733;DHT22;68056;52.530;5.454;2023-12-04T03:45:01;1.10;75.80
78733;DHT22;68056;52.530;5.454;2023-12-04T03:47:27;1.10;75.80
78733;DHT22;68056;52.530;5.454;2023-12-04T03:49:52;1.10;75.70
78733;DHT22;68056;52.530;5.454;2023-12-04T03:52:18;1.10;75.80
78733;DHT22;68056;52.530;5.454;2023-12-04T03:54:43;1.10;75.70
78733;DHT22;68056;52.530;5.454;2023-12-04T03:57:09;1.10;75.70
78733;DHT22;68056;52.530;5.454;2023-12-04T03:59:34;1.10;75.70
78733;DHT22;68056;52.530;5.454;2023-12-04T04:02:00;1.10;75.70
78733;DHT22;68056;52.530;5.454;2023-12-04T04:04:25;1.10;75.60
78733;DHT22;68056;52.530;5.454;2023-12-04T04:06:51;1.10;75.60
78733;DHT22;68056;52.530;5.454;2023-12-04T04:09:16;1.10;75.60
78733;DHT22;68056;52.530;5.454;2023-12-04T04:11:45;1.10;75.50
78733;DHT22;68056;52.530;5.454;2023-12-04T04:14:11;1.10;75.50
78733;DHT22;68056;52.530;5.454;2023-12-04T04:16:36;1.10;75.50
78733;DHT22;68056;52.530;5.454;2023-12-04T04:19:02;1.20;75.40
78733;DHT22;68056;52.530;5.454;2023-12-04T04:21:27;1.20;75.50
78733;DHT22;68056;52.530;5.454;2023-12-04T04:23:53;1.20;75.40
78733;DHT22;68056;52.530;5.454;2023-12-04T04:26:19;1.20;75.40
78733;DHT22;68056;52.530;5.454;2023-12-04T04:28:44;1.20;75.30
78733;DHT22;68056;52.530;5.454;2023-12-04T04:31:10;1.20;75.30
78733;DHT22;68056;52.530;5.454;2023-12-04T04:33:35;1.20;75.20
78733;DHT22;68056;52.530;5.454;2023-12-04T04:36:01;1.20;75.20
78733;DHT22;68056;52.530;5.454;2023-12-04T04:38:27;1.20;75.20
78733;DHT22;68056;52.530;5.454;2023-12-04T04:40:52;1.20;75.30
78733;DHT22;68056;52.530;5.454;2023-12-04T04:43:19;1.20;75.20
78733;DHT22;68056;52.530;5.454;2023-12-04T04:45:45;1.20;75.20
78733;DHT22;68056;52.530;5.454;2023-12-04T04:48:10;1.10;75.20
78733;DHT22;68056;52.530;5.454;2023-12-04T04:50:36;1.10;75.20
78733;DHT22;68056;52.530;5.454;2023-12-04T04:53:01;1.10;75.20
78733;DHT22;68056;52.530;5.454;2023-12-04T04:55:27;1.10;75.20
78733;DHT22;68056;52.530;5.454;2023-12-04T04:57:53;1.10;75.20
78733;DHT22;68056;52.530;5.454;2023-12-04T05:00:18;1.10;75.20
78733;DHT22;68056;52.530;5.454;2023-12-04T05:02:45;1.10;75.10
78733;DHT22;68056;52.530;5.454;2023-12-04T05:05:11;1.10;75.10
78733;DHT22;68056;52.530;5.454;2023-12-04T05:07:37;1.10;75.00
78733;DHT22;68056;52.530;5.454;2023-12-04T05:10:02;1.10;75.00
78733;DHT22;68056;52.530;5.454;2023-12-04T05:12:28;1.00;75.10
78733;DHT22;68056;52.530;5.454;2023-12-04T05:14:54;1.00;75.00
78733;DHT22;68056;52.530;5.454;2023-12-04T05:17:19;1.00;75.00
78733;DHT22;68056;52.530;5.454;2023-12-04T05:19:45;1.00;75.00
78733;DHT22;68056;52.530;5.454;2023-12-04T05:22:10;1.00;75.00
78733;DHT22;68056;52.530;5.454;2023-12-04T05:24:36;1.00;75.00
78733;DHT22;68056;52.530;5.454;2023-12-04T05:27:02;1.00;75.00
78733;DHT22;68056;52.530;5.454;2023-12-04T05:29:28;1.10;74.80
78733;DHT22;68056;52.530;5.454;2023-12-04T05:31:53;1.00;74.80
78733;DHT22;68056;52.530;5.454;2023-12-04T05:34:19;1.10;74.70
78733;DHT22;68056;52.530;5.454;2023-12-04T05:36:44;1.00;74.70
78733;DHT22;68056;52.530;5.454;2023-12-04T05:39:10;1.10;74.70
78733;DHT22;68056;52.530;5.454;2023-12-04T05:41:35;1.10;74.60
78733;DHT22;68056;52.530;5.454;2023-12-04T05:44:01;1.10;74.60
78733;DHT22;68056;52.530;5.454;2023-12-04T05:46:27;1.10;74.50
78733;DHT22;68056;52.530;5.454;2023-12-04T05:48:53;1.10;74.40
78733;DHT22;68056;52.530;5.454;2023-12-04T05:51:18;1.10;74.50
78733;DHT22;68056;52.530;5.454;2023-12-04T05:53:44;1.20;74.40
78733;DHT22;68056;52.530;5.454;2023-12-04T05:56:10;1.10;74.40
78733;DHT22;68056;52.530;5.454;2023-12-04T05:58:36;1.10;74.50
78733;DHT22;68056;52.530;5.454;2023-12-04T06:01:01;1.20;74.30
78733;DHT22;68056;52.530;5.454;2023-12-04T06:03:28;1.20;74.30
78733;DHT22;68056;52.530;5.454;2023-12-04T06:05:53;1.20;74.40
78733;DHT22;68056;52.530;5.454;2023-12-04T06:08:19;1.20;74.40
78733;DHT22;68056;52.530;5.454;2023-12-04T06:10:45;1.20;74.20
78733;DHT22;68056;52.530;5.454;2023-12-04T06:13:11;1.20;74.20
78733;DHT22;68056;52.530;5.454;2023-12-04T06:15:36;1.20;74.20
78733;DHT22;68056;52.530;5.454;2023-12-04T06:18:02;1.20;74.20
78733;DHT22;68056;52.530;5.454;2023-12-04T06:20:27;1.20;74.20
78733;DHT22;68056;52.530;5.454;2023-12-04T06:22:53;1.20;74.10
78733;DHT22;68056;52.530;5.454;2023-12-04T06:25:19;1.20;74.20
78733;DHT22;68056;52.530;5.454;2023-12-04T06:27:45;1.20;74.10
78733;DHT22;68056;52.530;5.454;2023-12-04T06:30:11;1.20;74.20
78733;DHT22;68056;52.530;5.454;2023-12-04T06:32:37;1.20;74.20
78733;DHT22;68056;52.530;5.454;2023-12-04T06:35:03;1.20;74.20
78733;DHT22;68056;52.530;5.454;2023-12-04T06:37:29;1.20;74.20
78733;DHT22;68056;52.530;5.454;2023-12-04T06:39:57;1.20;74.20
78733;DHT22;68056;52.530;5.454;2023-12-04T06:42:25;1.20;74.20
78733;DHT22;68056;52.530;5.454;2023-12-04T06:44:50;1.20;74.10
78733;DHT22;68056;52.530;5.454;2023-12-04T06:47:19;1.30;74.10
78733;DHT22;68056;52.530;5.454;2023-12-04T06:49:47;1.40;74.10
78733;DHT22;68056;52.530;5.454;2023-12-04T06:52:12;1.40;74.10
78733;DHT22;68056;52.530;5.454;2023-12-04T06:54:38;1.30;74.00
78733;DHT22;68056;52.530;5.454;2023-12-04T06:57:04;1.40;73.90
78733;DHT22;68056;52.530;5.454;2023-12-04T06:59:29;1.40;73.90
78733;DHT22;68056;52.530;5.454;2023-12-04T07:01:55;1.40;73.80
78733;DHT22;68056;52.530;5.454;2023-12-04T07:04:21;1.40;73.80
78733;DHT22;68056;52.530;5.454;2023-12-04T07:06:47;1.40;73.80
78733;DHT22;68056;52.530;5.454;2023-12-04T07:09:16;1.40;73.80
78733;DHT22;68056;52.530;5.454;2023-12-04T07:11:42;1.40;73.80
78733;DHT22;68056;52.530;5.454;2023-12-04T07:14:09;1.40;73.80
78733;DHT22;68056;52.530;5.454;2023-12-04T07:16:44;1.40;73.80
78733;DHT22;68056;52.530;5.454;2023-12-04T07:19:10;1.40;73.80
78733;DHT22;68056;52.530;5.454;2023-12-04T07:21:36;1.40;73.80
78733;DHT22;68056;52.530;5.454;2023-12-04T07:24:02;1.40;73.70
78733;DHT22;68056;52.530;5.454;2023-12-04T07:26:28;1.40;73.70
78733;DHT22;68056;52.530;5.454;2023-12-04T07:28:54;1.40;73.80
78733;DHT22;68056;52.530;5.454;2023-12-04T07:31:19;1.40;73.70
78733;DHT22;68056;52.530;5.454;2023-12-04T07:33:45;1.40;73.70
78733;DHT22;68056;52.530;5.454;2023-12-04T07:36:11;1.30;73.70
78733;DHT22;68056;52.530;5.454;2023-12-04T07:38:36;1.30;73.70
78733;DHT22;68056;52.530;5.454;2023-12-04T07:41:02;1.30;73.70
78733;DHT22;68056;52.530;5.454;2023-12-04T07:43:28;1.30;73.70
78733;DHT22;68056;52.530;5.454;2023-12-04T07:45:55;1.30;73.70
78733;DHT22;68056;52.530;5.454;2023-12-04T07:48:21;1.30;73.60
78733;DHT22;68056;52.530;5.454;2023-12-04T07:50:47;1.30;73.70
78733;DHT22;68056;52.530;5.454;2023-12-04T07:53:13;1.30;73.70
78733;DHT22;68056;52.530;5.454;2023-12-04T07:55:39;1.30;73.70
78733;DHT22;68056;52.530;5.454;2023-12-04T07:58:04;1.30;73.70
78733;DHT22;68056;52.530;5.454;2023-12-04T08:00:30;1.30;73.70
78733;DHT22;68056;52.530;5.454;2023-12-04T08:02:55;1.30;73.60
78733;DHT22;68056;52.530;5.454;2023-12-04T08:05:21;1.30;73.60
78733;DHT22;68056;52.530;5.454;2023-12-04T08:07:47;1.40;73.50
78733;DHT22;68056;52.530;5.454;2023-12-04T08:10:12;1.40;73.50
78733;DHT22;68056;52.530;5.454;2023-12-04T08:12:38;1.40;73.50
78733;DHT22;68056;52.530;5.454;2023-12-04T08:15:05;1.40;73.40
78733;DHT22;68056;52.530;5.454;2023-12-04T08:17:31;1.40;73.40
78733;DHT22;68056;52.530;5.454;2023-12-04T08:19:56;1.30;73.40
78733;DHT22;68056;52.530;5.454;2023-12-04T08:22:22;1.40;73.40
78733;DHT22;68056;52.530;5.454;2023-12-04T08:24:47;1.40;73.40
78733;DHT22;68056;52.530;5.454;2023-12-04T08:27:13;1.40;73.30
78733;DHT22;68056;52.530;5.454;2023-12-04T08:29:41;1.40;73.30
78733;DHT22;68056;52.530;5.454;2023-12-04T08:32:07;1.40;73.20
78733;DHT22;68056;52.530;5.454;2023-12-04T08:34:33;1.40;73.20
78733;DHT22;68056;52.530;5.454;2023-12-04T08:36:58;1.50;73.20
78733;DHT22;68056;52.530;5.454;2023-12-04T08:39:24;1.50;73.20
78733;DHT22;68056;52.530;5.454;2023-12-04T08:41:49;1.50;73.10
78733;DHT22;68056;52.530;5.454;2023-12-04T08:44:15;1.60;73.00
78733;DHT22;68056;52.530;5.454;2023-12-04T08:46:42;1.60;72.90
78733;DHT22;68056;52.530;5.454;2023-12-04T08:49:07;1.60;72.90
78733;DHT22;68056;52.530;5.454;2023-12-04T08:51:33;1.60;72.90
78733;DHT22;68056;52.530;5.454;2023-12-04T08:53:58;1.60;72.80
78733;DHT22;68056;52.530;5.454;2023-12-04T08:56:24;1.70;72.80
78733;DHT22;68056;52.530;5.454;2023-12-04T08:58:49;1.70;72.60
78733;DHT22;68056;52.530;5.454;2023-12-04T09:01:18;1.80;72.50
78733;DHT22;68056;52.530;5.454;2023-12-04T09:03:43;1.80;72.40
78733;DHT22;68056;52.530;5.454;2023-12-04T09:06:09;1.80;72.20
78733;DHT22;68056;52.530;5.454;2023-12-04T09:08:35;1.90;72.10
78733;DHT22;68056;52.530;5.454;2023-12-04T09:11:00;1.90;72.00
78733;DHT22;68056;52.530;5.454;2023-12-04T09:13:26;1.90;71.90
78733;DHT22;68056;52.530;5.454;2023-12-04T09:15:51;1.90;71.70
78733;DHT22;68056;52.530;5.454;2023-12-04T09:18:17;2.00;71.70
78733;DHT22;68056;52.530;5.454;2023-12-04T09:20:43;2.10;71.50
78733;DHT22;68056;52.530;5.454;2023-12-04T09:23:09;2.10;71.30
78733;DHT22;68056;52.530;5.454;2023-12-04T09:25:35;2.20;71.20
78733;DHT22;68056;52.530;5.454;2023-12-04T09:28:00;2.20;70.90
78733;DHT22;68056;52.530;5.454;2023-12-04T09:30:26;2.20;70.70
78733;DHT22;68056;52.530;5.454;2023-12-04T09:32:52;2.20;70.60
78733;DHT22;68056;52.530;5.454;2023-12-04T09:35:17;2.20;70.50
78733;DHT22;68056;52.530;5.454;2023-12-04T09:37:43;2.20;70.50
78733;DHT22;68056;52.530;5.454;2023-12-04T09:40:09;2.20;70.50
78733;DHT22;68056;52.530;5.454;2023-12-04T09:42:36;2.20;70.40
78733;DHT22;68056;52.530;5.454;2023-12-04T09:45:01;2.20;70.20
78733;DHT22;68056;52.530;5.454;2023-12-04T09:47:28;2.20;70.30
78733;DHT22;68056;52.530;5.454;2023-12-04T09:49:56;2.20;70.30
78733;DHT22;68056;52.530;5.454;2023-12-04T09:52:22;2.30;70.30
78733;DHT22;68056;52.530;5.454;2023-12-04T09:54:50;2.30;70.20
78733;DHT22;68056;52.530;5.454;2023-12-04T09:57:16;2.30;70.20
78733;DHT22;68056;52.530;5.454;2023-12-04T09:59:44;2.20;70.10
78733;DHT22;68056;52.530;5.454;2023-12-04T10:02:10;2.20;70.00
78733;DHT22;68056;52.530;5.454;2023-12-04T10:04:35;2.20;70.00
78733;DHT22;68056;52.530;5.454;2023-12-04T10:07:02;2.30;70.00
78733;DHT22;68056;52.530;5.454;2023-12-04T10:09:28;2.30;70.10
78733;DHT22;68056;52.530;5.454;2023-12-04T10:11:55;2.30;70.10
78733;DHT22;68056;52.530;5.454;2023-12-04T10:14:21;2.40;70.00
78733;DHT22;68056;52.530;5.454;2023-12-04T10:16:48;2.40;70.00
78733;DHT22;68056;52.530;5.454;2023-12-04T10:19:24;2.40;70.00
78733;DHT22;68056;52.530;5.454;2023-12-04T10:21:54;2.40;69.90
78733;DHT22;68056;52.530;5.454;2023-12-04T10:24:37;2.40;69.80
78733;DHT22;68056;52.530;5.454;2023-12-04T10:27:04;2.40;69.80
78733;DHT22;68056;52.530;5.454;2023-12-04T10:29:45;2.50;69.80
78733;DHT22;68056;52.530;5.454;2023-12-04T10:32:11;2.50;69.80
78733;DHT22;68056;52.530;5.454;2023-12-04T10:34:37;2.60;69.80
78733;DHT22;68056;52.530;5.454;2023-12-04T10:37:04;2.70;69.60
78733;DHT22;68056;52.530;5.454;2023-12-04T10:39:30;2.70;69.40
78733;DHT22;68056;52.530;5.454;2023-12-04T10:42:01;2.80;69.20
78733;DHT22;68056;52.530;5.454;2023-12-04T10:44:27;2.80;69.10
78733;DHT22;68056;52.530;5.454;2023-12-04T10:46:55;2.80;68.90
78733;DHT22;68056;52.530;5.454;2023-12-04T10:49:26;2.80;68.90
78733;DHT22;68056;52.530;5.454;2023-12-04T10:51:55;2.90;68.90
78733;DHT22;68056;52.530;5.454;2023-12-04T10:54:20;2.90;68.80
78733;DHT22;68056;52.530;5.454;2023-12-04T10:56:47;2.90;68.70
78733;DHT22;68056;52.530;5.454;2023-12-04T10:59:15;2.90;68.70
78733;DHT22;68056;52.530;5.454;2023-12-04T11:01:44;2.90;68.70
78733;DHT22;68056;52.530;5.454;2023-12-04T11:04:16;2.90;68.70
78733;DHT22;68056;52.530;5.454;2023-12-04T11:06:46;3.00;68.70
78733;DHT22;68056;52.530;5.454;2023-12-04T11:09:15;3.00;68.70
78733;DHT22;68056;52.530;5.454;2023-12-04T11:11:48;3.00;68.50
78733;DHT22;68056;52.530;5.454;2023-12-04T11:14:18;3.10;68.50
78733;DHT22;68056;52.530;5.454;2023-12-04T11:16:49;3.10;68.60
78733;DHT22;68056;52.530;5.454;2023-12-04T11:19:39;3.10;68.60
78733;DHT22;68056;52.530;5.454;2023-12-04T11:22:07;3.10;68.60
78733;DHT22;68056;52.530;5.454;2023-12-04T11:24:35;3.10;68.50
78733;DHT22;68056;52.530;5.454;2023-12-04T11:27:01;3.10;68.50
78733;DHT22;68056;52.530;5.454;2023-12-04T11:29:29;3.10;68.60
78733;DHT22;68056;52.530;5.454;2023-12-04T11:31:54;3.10;68.50
78733;DHT22;68056;52.530;5.454;2023-12-04T11:34:20;3.10;68.60
78733;DHT22;68056;52.530;5.454;2023-12-04T11:36:46;3.10;68.60
78733;DHT22;68056;52.530;5.454;2023-12-04T11:39:12;3.10;68.60
78733;DHT22;68056;52.530;5.454;2023-12-04T11:41:40;3.10;68.70
78733;DHT22;68056;52.530;5.454;2023-12-04T11:44:12;3.10;68.60
78733;DHT22;68056;52.530;5.454;2023-12-04T11:46:39;3.10;68.60
78733;DHT22;68056;52.530;5.454;2023-12-04T11:49:26;3.10;68.60
78733;DHT22;68056;52.530;5.454;2023-12-04T11:51:53;3.10;68.70
78733;DHT22;68056;52.530;5.454;2023-12-04T11:54:21;3.10;68.80
78733;DHT22;68056;52.530;5.454;2023-12-04T11:57:19;3.10;68.70
78733;DHT22;68056;52.530;5.454;2023-12-04T11:59:49;3.10;68.60
78733;DHT22;68056;52.530;5.454;2023-12-04T12:02:15;3.10;68.70
78733;DHT22;68056;52.530;5.454;2023-12-04T12:04:42;3.10;68.50
78733;DHT22;68056;52.530;5.454;2023-12-04T12:07:07;3.10;68.50
78733;DHT22;68056;52.530;5.454;2023-12-04T12:09:33;3.10;68.50
78733;DHT22;68056;52.530;5.454;2023-12-04T12:12:03;3.10;68.50
78733;DHT22;68056;52.530;5.454;2023-12-04T12:14:29;3.10;68.60
78733;DHT22;68056;52.530;5.454;2023-12-04T12:16:57;3.10;68.60
78733;DHT22;68056;52.530;5.454;2023-12-04T12:19:24;3.00;68.70
78733;DHT22;68056;52.530;5.454;2023-12-04T12:21:49;3.00;68.70
78733;DHT22;68056;52.530;5.454;2023-12-04T12:24:17;3.00;68.70
78733;DHT22;68056;52.530;5.454;2023-12-04T12:26:43;3.00;68.60
78733;DHT22;68056;52.530;5.454;2023-12-04T12:29:09;2.90;68.60
78733;DHT22;68056;52.530;5.454;2023-12-04T12:31:34;2.90;68.70
78733;DHT22;68056;52.530;5.454;2023-12-04T12:34:00;2.90;68.70
78733;DHT22;68056;52.530;5.454;2023-12-04T12:36:26;2.90;68.60
78733;DHT22;68056;52.530;5.454;2023-12-04T12:38:53;2.90;68.60
78733;DHT22;68056;52.530;5.454;2023-12-04T12:41:18;2.90;68.60
78733;DHT22;68056;52.530;5.454;2023-12-04T12:43:45;2.90;68.60
78733;DHT22;68056;52.530;5.454;2023-12-04T12:46:11;2.80;68.70
78733;DHT22;68056;52.530;5.454;2023-12-04T12:48:36;2.80;68.50
78733;DHT22;68056;52.530;5.454;2023-12-04T12:51:02;2.80;68.60
78733;DHT22;68056;52.530;5.454;2023-12-04T12:53:28;2.80;68.40
78733;DHT22;68056;52.530;5.454;2023-12-04T12:55:54;2.80;68.30
78733;DHT22;68056;52.530;5.454;2023-12-04T12:58:19;2.80;68.30
78733;DHT22;68056;52.530;5.454;2023-12-04T13:00:46;2.80;68.20
78733;DHT22;68056;52.530;5.454;2023-12-04T13:03:16;2.80;68.20
78733;DHT22;68056;52.530;5.454;2023-12-04T13:05:42;2.80;68.20
78733;DHT22;68056;52.530;5.454;2023-12-04T13:08:07;2.80;68.20
78733;DHT22;68056;52.530;5.454;2023-12-04T13:10:33;2.80;68.30
78733;DHT22;68056;52.530;5.454;2023-12-04T13:12:58;2.80;68.30
78733;DHT22;68056;52.530;5.454;2023-12-04T13:15:28;2.80;68.20
78733;DHT22;68056;52.530;5.454;2023-12-04T13:17:54;2.80;68.20
78733;DHT22;68056;52.530;5.454;2023-12-04T13:20:20;2.80;68.30
78733;DHT22;68056;52.530;5.454;2023-12-04T13:22:45;2.80;68.30
78733;DHT22;68056;52.530;5.454;2023-12-04T13:25:11;2.90;68.20
78733;DHT22;68056;52.530;5.454;2023-12-04T13:27:37;2.90;68.20
78733;DHT22;68056;52.530;5.454;2023-12-04T13:30:07;2.90;68.20
78733;DHT22;68056;52.530;5.454;2023-12-04T13:32:37;2.90;68.20
78733;DHT22;68056;52.530;5.454;2023-12-04T13:35:04;2.90;68.20
78733;DHT22;68056;52.530;5.454;2023-12-04T13:37:36;2.90;68.10
78733;DHT22;68056;52.530;5.454;2023-12-04T13:40:06;2.90;68.10
78733;DHT22;68056;52.530;5.454;2023-12-04T13:42:33;2.80;68.20
78733;DHT22;68056;52.530;5.454;2023-12-04T13:45:17;2.80;68.20
78733;DHT22;68056;52.530;5.454;2023-12-04T13:47:46;2.80;68.10
78733;DHT22;68056;52.530;5.454;2023-12-04T13:50:12;2.70;68.10
78733;DHT22;68056;52.530;5.454;2023-12-04T13:52:37;2.70;68.20
78733;DHT22;68056;52.530;5.454;2023-12-04T13:55:05;2.70;68.30
78733;DHT22;68056;52.530;5.454;2023-12-04T13:57:43;2.70;68.20
78733;DHT22;68056;52.530;5.454;2023-12-04T14:00:23;2.70;68.20
78733;DHT22;68056;52.530;5.454;2023-12-04T14:02:49;2.70;68.20
78733;DHT22;68056;52.530;5.454;2023-12-04T14:05:21;2.70;68.20
78733;DHT22;68056;52.530;5.454;2023-12-04T14:07:48;2.70;68.20
78733;DHT22;68056;52.530;5.454;2023-12-04T14:10:14;2.70;68.10
78733;DHT22;68056;52.530;5.454;2023-12-04T14:12:41;2.70;68.00
78733;DHT22;68056;52.530;5.454;2023-12-04T14:15:06;2.70;68.00
78733;DHT22;68056;52.530;5.454;2023-12-04T14:17:32;2.70;68.00
78733;DHT22;68056;52.530;5.454;2023-12-04T14:19:58;2.70;68.00
78733;DHT22;68056;52.530;5.454;2023-12-04T14:22:24;2.70;68.00
78733;DHT22;68056;52.530;5.454;2023-12-04T14:24:51;2.70;68.00
78733;DHT22;68056;52.530;5.454;2023-12-04T14:27:16;2.70;68.00
78733;DHT22;68056;52.530;5.454;2023-12-04T14:29:43;2.70;68.00
78733;DHT22;68056;52.530;5.454;2023-12-04T14:32:10;2.70;68.00
78733;DHT22;68056;52.530;5.454;2023-12-04T14:34:35;2.70;68.00
78733;DHT22;68056;52.530;5.454;2023-12-04T14:37:01;2.70;68.10
78733;DHT22;68056;52.530;5.454;2023-12-04T14:39:27;2.70;68.00
78733;DHT22;68056;52.530;5.454;2023-12-04T14:41:52;2.70;68.10
78733;DHT22;68056;52.530;5.454;2023-12-04T14:44:18;2.70;68.10
78733;DHT22;68056;52.530;5.454;2023-12-04T14:46:43;2.70;68.20
78733;DHT22;68056;52.530;5.454;2023-12-04T14:49:10;2.70;68.10
78733;DHT22;68056;52.530;5.454;2023-12-04T14:51:36;2.70;68.00
78733;DHT22;68056;52.530;5.454;2023-12-04T14:54:01;2.70;68.10
78733;DHT22;68056;52.530;5.454;2023-12-04T14:56:46;2.70;68.10
78733;DHT22;68056;52.530;5.454;2023-12-04T14:59:32;2.70;68.00
78733;DHT22;68056;52.530;5.454;2023-12-04T15:02:06;2.70;68.00
78733;DHT22;68056;52.530;5.454;2023-12-04T15:04:50;2.70;68.00
78733;DHT22;68056;52.530;5.454;2023-12-04T15:07:39;2.80;68.00
78733;DHT22;68056;52.530;5.454;2023-12-04T15:10:23;2.80;67.90
78733;DHT22;68056;52.530;5.454;2023-12-04T15:12:51;2.80;68.00
78733;DHT22;68056;52.530;5.454;2023-12-04T15:15:23;2.80;67.90
78733;DHT22;68056;52.530;5.454;2023-12-04T15:18:07;2.80;68.00
78733;DHT22;68056;52.530;5.454;2023-12-04T15:20:51;2.70;67.90
78733;DHT22;68056;52.530;5.454;2023-12-04T15:23:17;2.70;67.90
78733;DHT22;68056;52.530;5.454;2023-12-04T15:25:44;2.70;68.10
78733;DHT22;68056;52.530;5.454;2023-12-04T15:28:10;2.70;68.00
78733;DHT22;68056;52.530;5.454;2023-12-04T15:30:39;2.70;68.00
78733;DHT22;68056;52.530;5.454;2023-12-04T15:33:04;2.60;68.00
78733;DHT22;68056;52.530;5.454;2023-12-04T15:35:30;2.60;68.10
78733;DHT22;68056;52.530;5.454;2023-12-04T15:37:56;2.50;68.20
78733;DHT22;68056;52.530;5.454;2023-12-04T15:40:21;2.50;68.30
78733;DHT22;68056;52.530;5.454;2023-12-04T15:42:47;2.50;68.30